Hauptseite
METAR-TAF:

METAR-TAF

Flughäfen :

Douglas-Charles Airport

Marigot, Dominica

Breite: 15-32N, Länge: 061-18W, Höhe: 13 m

Beobachtung

Neuester Wetterbericht von vor 5 Stunden und 0 Minuten, um 01:00 UTC
Wind 3 kt aus Ost
Temperatur 25°C
Luftfeuchtigkeit 79%
Luftdruck 1017 hPa
Sichtweite 10 km oder mehr
Aufgelockert bewölkt in der Höhe von 2200 ft

METAR: TDPD 280100Z 09003KT 9999 SCT022 25/21 Q1017

Zeit: 02:00 (06:00 UTC)

Prognose

Neuester Wetterbericht von vor 1 Stunde und 0 Minuten, um 05:00 UTC
Gültige Prognose vom 28 um 06 UTC bis 29 um 06 UTC
Wind 8 kt aus Nordost
Sichtweite 10 km oder mehr
Aufgelockert bewölkt in der Höhe von 1800 ft

TAF: TDPD 280500Z 2806/2906 04008KT 9999 SCT018

Wetterbeobachtungen und Prognosen von mehr als 4000 Flughäfen (METAR und TAF Bericht).

Die verfügbaren Stationen werden durch gelbe und rote Markierungen auf der Karte dargestellt.

Führen Sie die Maus auf sie, um den Namen der Station zu sehen.

Darauf klicken, um die Beobachtung von Wetterbeobachtungen und Prognosen zu sehen.

Um die Karte zu ändern : klicken Sie auf den grünen Tasten mit einem schwarzen Kreuz Zum Vergrößern, auf den grünen Button mit einem Gedankenstrich zu verkleinern, oder auf die grünen Pfeile für benachbarte Karten.


METAR-TAF: